KLAR

Details ICAO KLAR (LAR)
Name LARAMIE RGNL
Region United States
Timezone America/Denver (UTC-7.0)
Plans Departing 8
Arriving 8
Stats Elevation 7,284 ft / 2,220 m (AMSL)
Location 41.312302° -105.674710°
Runways 2
Magnetic Variation 8.715° E
Sunrise 2017-12-15 14:23:07 UTC / 2017-12-15 07:23:07 Local
Sunset 2017-12-15 23:35:39 UTC / 2017-12-15 16:35:39 Local
Advertisement - Login to hide

Runways

ID Width Length Bearing (true) Bearing (mag) Surface Threshold Offset Overrun Length
03 151 ft / 46 m 8,498 ft / 2,590 m 45.45° 36.74° Asphalt 0 ft / 0 m 0 ft / 0 m
12 98 ft / 30 m 6,327 ft / 1,928 m 134.64° 125.93° Asphalt 0 ft / 0 m 0 ft / 0 m
21 151 ft / 46 m 8,498 ft / 2,590 m 225.46° 216.75° Asphalt 0 ft / 0 m 0 ft / 0 m
30 98 ft / 30 m 6,327 ft / 1,928 m 314.65° 305.94° Asphalt 0 ft / 0 m 0 ft / 0 m

Map

Weather


0- 5 10 15 20 25 30 35+ Temperature / ° C

Clouds and Precipitation
Forecast for 2017-12-15 18:00 UTC. Updated an hour ago

Ground ~20,000 ft ~40,000 ft Winds

METAR

KLAR 151353Z AUTO 23016KT 10SM CLR M05/M13 A3007 RMK AO2 SLP235 T10501128

TAF

KLAR 151139Z 1512/1612 25015G25KT P6SM BKN200 FM160700 23012KT P6SM OVC100

Frequencies

Recorded 135.47 MHz ASOS
Unicom 123.05 MHz CTAF/UNICOM
Warning: Do not use this data for real-world aviation or navigation. No guarantee of current accuracy is given.